createdAt,value
2022-09-28T00:01:05.513Z,1.25
2022-09-28T00:03:32.420Z,1.15
2022-09-28T00:06:04.001Z,1.35
2022-09-28T00:08:31.114Z,1.85
2022-09-28T00:10:58.700Z,1.50
2022-09-28T00:13:25.605Z,1.10
2022-09-28T00:16:04.200Z,1.83
2022-09-28T00:18:32.338Z,1.25
2022-09-28T00:21:02.313Z,1.40
2022-09-28T00:23:29.370Z,1.17
2022-09-28T00:25:56.261Z,1.33
2022-09-28T00:28:23.135Z,1.50
2022-09-28T00:30:55.876Z,1.25
2022-09-28T00:33:22.855Z,1.67
2022-09-28T00:35:57.909Z,1.50
2022-09-28T00:38:30.951Z,1.67
2022-09-28T00:40:59.575Z,2.10
2022-09-28T00:43:26.732Z,2.13
2022-09-28T00:46:00.503Z,1.40
2022-09-28T00:48:31.195Z,1.00
2022-09-28T00:51:00.498Z,1.40
2022-09-28T00:53:32.661Z,1.30
2022-09-28T00:56:03.786Z,2.13
2022-09-28T00:58:34.837Z,1.42
2022-09-28T01:01:02.371Z,1.67
2022-09-28T01:03:29.611Z,1.60
2022-09-28T01:05:59.119Z,2.40
2022-09-28T01:08:29.588Z,2.10
2022-09-28T01:10:59.293Z,1.05
2022-09-28T01:13:30.282Z,1.33
2022-09-28T01:16:28.803Z,1.08
2022-09-28T01:19:10.586Z,1.63
2022-09-28T01:21:54.383Z,1.55
2022-09-28T01:24:48.705Z,0.93
2022-09-28T01:27:24.572Z,1.48
2022-09-28T01:30:07.697Z,1.85
2022-09-28T01:32:46.835Z,1.10
2022-09-28T01:35:16.131Z,1.25
2022-09-28T01:38:13.918Z,1.95
2022-09-28T01:40:41.810Z,1.20
2022-09-28T01:43:16.532Z,1.08
2022-09-28T01:46:16.167Z,2.38
2022-09-28T01:48:55.273Z,1.45
2022-09-28T01:51:36.466Z,1.10
2022-09-28T01:56:49.221Z,1.33
2022-09-28T01:59:20.548Z,0.80
2022-09-28T02:02:09.792Z,1.05
2022-09-28T02:04:54.224Z,1.40
2022-09-28T02:07:31.410Z,0.60
2022-09-28T02:10:07.222Z,0.90
2022-09-28T02:12:42.616Z,0.98
2022-09-28T02:15:10.921Z,0.80
2022-09-28T02:17:38.304Z,1.00
2022-09-28T02:20:05.708Z,0.75
2022-09-28T02:22:40.645Z,0.93
2022-09-28T02:25:19.910Z,0.65
2022-09-28T02:28:01.741Z,0.40
2022-09-28T02:30:35.749Z,0.50
2022-09-28T02:33:11.749Z,0.50
2022-09-28T02:35:41.479Z,1.17
2022-09-28T02:38:10.032Z,1.30
2022-09-28T02:40:38.151Z,1.02
2022-09-28T02:43:14.057Z,1.00
2022-09-28T02:45:56.033Z,0.50
2022-09-28T02:48:43.567Z,0.40
2022-09-28T02:51:20.433Z,0.20
2022-09-28T02:53:50.441Z,0.20
2022-09-28T02:56:20.407Z,0.70
2022-09-28T02:59:05.999Z,0.30
2022-09-28T03:01:39.682Z,0.47
2022-09-28T03:04:17.906Z,0.30
2022-09-28T03:06:54.038Z,0.30
2022-09-28T03:09:26.856Z,0.38
2022-09-28T03:11:58.904Z,0.30
2022-09-28T03:14:25.908Z,0.30
2022-09-28T03:16:56.581Z,0.10
2022-09-28T03:19:33.874Z,0.30
2022-09-28T03:22:01.826Z,0.10
2022-09-28T03:24:28.889Z,0.20
2022-09-28T03:26:55.765Z,0.30
2022-09-28T03:29:23.263Z,0.20
2022-09-28T03:31:57.234Z,0.20
2022-09-28T03:34:24.181Z,1.00
2022-09-28T03:36:51.786Z,0.40
2022-09-28T03:39:19.157Z,0.60
2022-09-28T03:41:45.990Z,0.40
2022-09-28T03:44:12.992Z,0.20
2022-09-28T03:46:40.292Z,0.10
2022-09-28T03:49:09.953Z,0.10
2022-09-28T03:51:36.945Z,0.30
2022-09-28T03:54:04.453Z,0.22
2022-09-28T03:56:31.399Z,0.20
2022-09-28T03:58:58.426Z,0.20
2022-09-28T04:01:26.367Z,0.30
2022-09-28T04:03:57.419Z,0.15
2022-09-28T04:06:26.007Z,0.20
2022-09-28T04:08:53.146Z,0.50
2022-09-28T04:11:20.109Z,0.20
2022-09-28T04:13:50.368Z,0.20
2022-09-28T04:16:18.613Z,0.30
2022-09-28T04:18:55.172Z,0.10
2022-09-28T04:21:34.045Z,0.40
2022-09-28T04:24:10.285Z,0.20
2022-09-28T04:26:37.314Z,0.20
2022-09-28T04:29:16.497Z,0.30
2022-09-28T04:31:51.630Z,0.40
2022-09-28T04:36:50.250Z,0.20
2022-09-28T04:39:19.344Z,0.20
2022-09-28T04:41:52.671Z,0.38
2022-09-28T04:44:19.643Z,0.20
2022-09-28T04:46:47.778Z,0.10
2022-09-28T04:49:37.103Z,0.20
2022-09-28T04:52:07.724Z,0.50
2022-09-28T04:54:35.746Z,0.30
2022-09-28T04:57:03.788Z,0.30
2022-09-28T04:59:30.907Z,0.17
2022-09-28T05:01:57.926Z,1.40
2022-09-28T05:04:43.911Z,0.85
2022-09-28T05:07:26.918Z,0.85
2022-09-28T05:09:55.331Z,1.13
2022-09-28T05:12:22.264Z,0.60
2022-09-28T05:14:49.563Z,0.22
2022-09-28T05:17:16.515Z,0.38
2022-09-28T05:20:03.119Z,0.28
2022-09-28T05:22:30.455Z,0.30
2022-09-28T05:24:59.170Z,0.30
2022-09-28T05:27:26.982Z,0.30
2022-09-28T05:30:07.271Z,0.10
2022-09-28T05:33:07.754Z,1.10
2022-09-28T05:35:54.426Z,1.20
2022-09-28T05:38:23.902Z,0.88
2022-09-28T05:40:51.357Z,1.00
2022-09-28T05:43:18.738Z,0.30
2022-09-28T05:45:45.797Z,0.20
2022-09-28T05:48:13.227Z,0.10
2022-09-28T05:50:41.068Z,0.22
2022-09-28T05:53:09.725Z,0.40
2022-09-28T05:55:37.957Z,0.65
2022-09-28T05:58:06.604Z,0.50
2022-09-28T06:00:35.252Z,0.50
2022-09-28T06:03:09.283Z,0.60
2022-09-28T06:05:37.611Z,1.10
2022-09-28T06:08:05.994Z,0.98
2022-09-28T06:10:34.093Z,0.63
2022-09-28T06:13:01.732Z,0.63
2022-09-28T06:15:30.631Z,0.35
2022-09-28T06:18:07.103Z,0.40
2022-09-28T06:20:41.760Z,1.50
2022-09-28T06:23:14.059Z,1.60
2022-09-28T06:25:41.349Z,0.93
2022-09-28T06:28:13.889Z,0.38
2022-09-28T06:30:42.321Z,0.70
2022-09-28T06:33:14.075Z,0.60
2022-09-28T06:35:42.333Z,0.50
2022-09-28T06:38:10.583Z,0.50
2022-09-28T06:40:38.173Z,0.88
2022-09-28T06:43:15.356Z,0.52
2022-09-28T06:46:01.589Z,0.43
2022-09-28T06:48:47.358Z,1.70
2022-09-28T06:51:40.048Z,0.52
2022-09-28T06:54:18.942Z,0.45
2022-09-28T06:57:02.384Z,0.85
2022-09-28T06:59:30.150Z,0.90
2022-09-28T07:01:59.770Z,0.50
2022-09-28T07:04:45.117Z,0.60
2022-09-28T07:07:33.078Z,0.80
2022-09-28T07:10:12.905Z,0.70
2022-09-28T07:13:02.707Z,1.10
2022-09-28T07:15:43.582Z,0.80
2022-09-28T07:18:13.328Z,0.60
2022-09-28T07:20:53.018Z,0.90
2022-09-28T07:23:21.338Z,0.85
2022-09-28T07:26:11.359Z,0.60
2022-09-28T07:28:55.851Z,0.68
2022-09-28T07:31:37.923Z,0.70
2022-09-28T07:34:28.043Z,0.52
2022-09-28T07:37:11.028Z,1.70
2022-09-28T07:39:58.416Z,0.80
2022-09-28T07:42:30.122Z,1.42
2022-09-28T07:44:58.560Z,0.75
2022-09-28T07:47:34.653Z,0.80
2022-09-28T07:50:21.361Z,0.85
2022-09-28T07:53:06.630Z,1.48
2022-09-28T07:56:09.437Z,0.90
2022-09-28T07:58:49.750Z,0.82
2022-09-28T08:01:22.657Z,1.10
2022-09-28T08:03:51.671Z,1.20
2022-09-28T08:06:18.947Z,1.30
2022-09-28T08:08:46.090Z,2.00
2022-09-28T08:11:17.876Z,3.80
2022-09-28T08:14:05.038Z,2.03
2022-09-28T08:16:53.107Z,1.40
2022-09-28T08:19:58.354Z,0.90
2022-09-28T08:22:25.417Z,1.27
2022-09-28T08:24:55.731Z,1.33
2022-09-28T08:27:22.747Z,1.65
2022-09-28T08:29:49.800Z,4.07
2022-09-28T08:32:38.830Z,1.08
2022-09-28T08:35:34.854Z,1.92
2022-09-28T08:38:40.022Z,1.15
2022-09-28T08:41:39.073Z,1.77
2022-09-28T08:47:47.476Z,1.15
2022-09-28T08:50:33.747Z,0.88
2022-09-28T08:53:27.049Z,1.15
2022-09-28T08:56:39.337Z,1.08
2022-09-28T08:59:20.035Z,1.58
2022-09-28T09:02:04.389Z,1.40
2022-09-28T09:04:33.884Z,1.35
2022-09-28T09:07:39.441Z,1.38
2022-09-28T09:10:39.264Z,2.13
2022-09-28T09:13:23.555Z,2.17
2022-09-28T09:16:21.177Z,1.83
2022-09-28T09:19:15.285Z,1.90
2022-09-28T09:22:14.421Z,2.00
2022-09-28T09:24:49.885Z,1.63
2022-09-28T09:27:40.151Z,1.33
2022-09-28T09:30:17.899Z,1.10
2022-09-28T09:32:58.741Z,1.05
2022-09-28T09:35:41.152Z,1.30
2022-09-28T09:38:36.283Z,2.10
2022-09-28T09:41:24.772Z,2.03
2022-09-28T09:44:35.243Z,2.05
2022-09-28T09:47:44.541Z,1.95
2022-09-28T09:50:31.636Z,1.52
2022-09-28T09:53:24.267Z,1.00
2022-09-28T09:56:00.489Z,1.52
2022-09-28T09:58:38.207Z,1.27
2022-09-28T10:01:50.427Z,1.50
2022-09-28T10:04:32.497Z,1.50
2022-09-28T10:07:09.101Z,2.40
2022-09-28T10:09:42.899Z,1.05
2022-09-28T10:12:41.974Z,1.63
2022-09-28T10:15:14.970Z,1.92
2022-09-28T10:17:50.270Z,1.30
2022-09-28T10:20:46.238Z,1.50
2022-09-28T10:23:33.956Z,1.20
2022-09-28T10:26:07.342Z,1.42
2022-09-28T10:28:47.425Z,1.58
2022-09-28T10:31:53.995Z,1.13
2022-09-28T10:34:29.466Z,1.80
2022-09-28T10:37:03.269Z,2.70
2022-09-28T10:39:53.658Z,1.85
2022-09-28T10:42:27.226Z,1.60
2022-09-28T10:45:23.312Z,2.15
2022-09-28T10:47:50.567Z,2.15
2022-09-28T10:50:24.429Z,2.50
2022-09-28T10:53:17.740Z,2.67
2022-09-28T10:56:28.968Z,2.80
2022-09-28T10:59:41.303Z,2.10
2022-09-28T11:02:27.217Z,4.63
2022-09-28T11:05:02.626Z,2.05
2022-09-28T11:07:45.602Z,2.90
2022-09-28T11:10:26.071Z,2.55
2022-09-28T11:12:56.550Z,3.10
2022-09-28T11:15:32.432Z,4.13
2022-09-28T11:18:31.332Z,2.80
2022-09-28T11:21:13.851Z,1.90
2022-09-28T11:24:19.338Z,1.90
2022-09-28T11:26:56.352Z,1.92
2022-09-28T11:29:43.109Z,1.55
2022-09-28T11:32:43.010Z,2.15
2022-09-28T11:35:23.259Z,2.47
2022-09-28T11:38:18.529Z,2.95
2022-09-28T11:43:59.253Z,1.70
2022-09-28T11:46:37.010Z,1.83
2022-09-28T11:49:20.133Z,1.50
2022-09-28T11:51:49.775Z,1.40
2022-09-28T11:54:28.831Z,1.90
2022-09-28T11:56:59.786Z,2.03
2022-09-28T11:59:50.814Z,2.03
2022-09-28T12:02:27.515Z,2.27
2022-09-28T12:05:23.942Z,2.85
2022-09-28T12:08:13.282Z,6.68
2022-09-28T12:11:12.862Z,6.00
2022-09-28T12:14:01.801Z,4.93
2022-09-28T12:19:29.409Z,3.40
2022-09-28T12:22:13.560Z,1.90
2022-09-28T12:24:47.590Z,1.40
2022-09-28T12:27:25.878Z,1.10
2022-09-28T12:30:02.718Z,1.20
2022-09-28T12:32:41.759Z,1.80
2022-09-28T12:35:43.481Z,5.95
2022-09-28T12:38:37.323Z,4.15
2022-09-28T12:41:22.481Z,2.10
2022-09-28T12:44:21.967Z,2.08
2022-09-28T12:47:05.532Z,1.75
2022-09-28T12:50:39.573Z,1.45
2022-09-28T12:53:37.130Z,1.33
2022-09-28T12:56:09.707Z,1.30
2022-09-28T12:59:01.483Z,1.83
2022-09-28T13:02:08.091Z,1.40
2022-09-28T13:04:54.135Z,1.50
2022-09-28T13:07:42.619Z,2.08
2022-09-28T13:10:32.530Z,1.73
2022-09-28T13:13:06.536Z,2.50
2022-09-28T13:15:50.605Z,2.03
2022-09-28T13:18:44.580Z,2.78
2022-09-28T13:21:26.199Z,3.15
2022-09-28T13:24:08.725Z,2.90
2022-09-28T13:26:46.112Z,2.70
2022-09-28T13:29:15.887Z,2.78
2022-09-28T13:31:56.679Z,2.20
2022-09-28T13:34:30.500Z,1.80
2022-09-28T13:37:19.906Z,3.22
2022-09-28T13:39:52.105Z,3.38
2022-09-28T13:42:27.541Z,2.97
2022-09-28T13:44:59.460Z,3.30
2022-09-28T13:47:42.168Z,3.42
2022-09-28T13:50:32.031Z,3.35
2022-09-28T13:53:19.150Z,2.20
2022-09-28T13:55:52.973Z,1.60
2022-09-28T13:58:42.216Z,1.33
2022-09-28T14:01:15.558Z,1.05
2022-09-28T14:03:42.873Z,1.40
2022-09-28T14:06:29.915Z,1.20
2022-09-28T14:09:43.047Z,1.98
2022-09-28T14:12:32.898Z,2.10
2022-09-28T14:15:00.628Z,2.50
2022-09-28T14:17:27.312Z,2.13
2022-09-28T14:20:00.058Z,2.65
2022-09-28T14:22:37.000Z,1.58
2022-09-28T14:25:16.452Z,1.35
2022-09-28T14:27:52.319Z,1.00
2022-09-28T14:30:23.330Z,0.93
2022-09-28T14:32:54.328Z,4.65
2022-09-28T14:35:27.229Z,2.78
2022-09-28T14:38:18.157Z,1.05
2022-09-28T14:41:15.191Z,2.72
2022-09-28T14:43:44.903Z,1.30
2022-09-28T14:46:11.659Z,0.80
2022-09-28T14:48:48.686Z,0.60
2022-09-28T14:51:30.103Z,1.25
2022-09-28T14:54:02.599Z,1.30
2022-09-28T14:56:33.091Z,0.93
2022-09-28T14:59:00.478Z,1.00
2022-09-28T15:01:27.503Z,1.15
2022-09-28T15:04:01.446Z,0.73
2022-09-28T15:06:47.142Z,0.70
2022-09-28T15:09:30.667Z,0.70
2022-09-28T15:12:09.715Z,0.80
2022-09-28T15:14:46.754Z,0.68
2022-09-28T15:17:18.951Z,0.80
2022-09-28T15:20:08.645Z,1.77
2022-09-28T15:22:37.272Z,1.00
2022-09-28T15:25:13.293Z,1.17
2022-09-28T15:27:41.409Z,1.10
2022-09-28T15:30:25.458Z,1.45
2022-09-28T15:32:56.661Z,1.98
2022-09-28T15:35:26.879Z,1.73
2022-09-28T15:37:55.339Z,1.50
2022-09-28T15:40:28.873Z,0.90
2022-09-28T15:42:59.069Z,1.13
2022-09-28T15:45:37.857Z,1.13
2022-09-28T15:48:20.371Z,0.98
2022-09-28T15:51:10.942Z,0.63
2022-09-28T15:53:56.022Z,0.70
2022-09-28T15:56:22.873Z,0.75
2022-09-28T15:59:10.591Z,0.90
2022-09-28T16:01:39.788Z,1.85
2022-09-28T16:04:39.519Z,0.65
2022-09-28T16:07:09.269Z,0.73
2022-09-28T16:10:02.916Z,0.60
2022-09-28T16:12:49.965Z,0.77
2022-09-28T16:15:34.299Z,0.70
2022-09-28T16:18:13.136Z,0.73
2022-09-28T16:20:40.918Z,0.60
2022-09-28T16:23:16.849Z,0.60
2022-09-28T16:25:54.300Z,0.60
2022-09-28T16:28:35.999Z,0.85
2022-09-28T16:31:14.535Z,0.75
2022-09-28T16:33:48.700Z,1.90
2022-09-28T16:36:17.184Z,1.40
2022-09-28T16:38:47.454Z,1.17
2022-09-28T16:41:26.360Z,2.70
2022-09-28T16:44:01.066Z,7.28
2022-09-28T16:46:36.385Z,11.82
2022-09-28T16:49:05.725Z,5.55
2022-09-28T16:51:33.571Z,2.85
2022-09-28T16:54:35.058Z,1.85
2022-09-28T16:57:03.053Z,1.05
2022-09-28T16:59:30.555Z,1.20
2022-09-28T17:01:57.781Z,0.80
2022-09-28T17:04:25.763Z,1.35
2022-09-28T17:06:54.427Z,0.80
2022-09-28T17:09:22.176Z,0.85
2022-09-28T17:11:55.471Z,1.15
2022-09-28T17:14:23.472Z,0.93
2022-09-28T17:17:13.690Z,0.80
2022-09-28T17:19:40.545Z,1.10
2022-09-28T17:22:09.221Z,0.80
2022-09-28T17:24:36.405Z,0.90
2022-09-28T17:27:03.581Z,1.02
2022-09-28T17:29:30.557Z,1.40
2022-09-28T17:31:57.431Z,1.63
2022-09-28T17:34:24.601Z,1.13
2022-09-28T17:36:52.088Z,1.20
2022-09-28T17:39:19.232Z,1.25
2022-09-28T17:41:45.947Z,2.08
2022-09-28T17:44:15.832Z,2.75
2022-09-28T17:46:49.168Z,2.63
2022-09-28T17:49:16.867Z,2.00
2022-09-28T17:51:43.676Z,2.00
2022-09-28T17:54:10.789Z,2.00
2022-09-28T17:56:37.554Z,2.17
2022-09-28T17:59:07.349Z,2.03
2022-09-28T18:01:37.982Z,1.00
2022-09-28T18:04:08.163Z,1.10
2022-09-28T18:06:36.927Z,1.10
2022-09-28T18:09:05.193Z,1.05
2022-09-28T18:11:33.104Z,2.45
2022-09-28T18:13:59.910Z,1.98
2022-09-28T18:16:28.595Z,1.30
2022-09-28T18:18:55.459Z,0.95
2022-09-28T18:21:22.344Z,1.80
2022-09-28T18:23:50.355Z,1.70
2022-09-28T18:26:19.591Z,1.50
2022-09-28T18:28:46.497Z,1.73
2022-09-28T18:31:15.192Z,1.73
2022-09-28T18:33:41.968Z,1.85
2022-09-28T18:36:08.762Z,1.58
2022-09-28T18:38:36.581Z,1.75
2022-09-28T18:41:16.232Z,1.25
2022-09-28T18:43:49.019Z,1.55
2022-09-28T18:46:18.263Z,1.80
2022-09-28T18:48:46.324Z,1.75
2022-09-28T18:51:13.310Z,1.80
2022-09-28T18:53:40.783Z,1.50
2022-09-28T18:56:09.835Z,2.03
2022-09-28T18:58:38.535Z,1.63
2022-09-28T19:01:29.362Z,1.58
2022-09-28T19:04:03.502Z,1.70
2022-09-28T19:06:31.740Z,2.38
2022-09-28T19:08:59.337Z,2.28
2022-09-28T19:11:26.738Z,2.67
2022-09-28T19:13:54.922Z,1.40
2022-09-28T19:16:28.354Z,2.33
2022-09-28T19:18:58.911Z,3.20
2022-09-28T19:21:26.717Z,3.65
2022-09-28T19:23:55.228Z,1.52
2022-09-28T19:26:24.643Z,1.70
2022-09-28T19:28:51.883Z,2.08
2022-09-28T19:31:21.682Z,2.42
2022-09-28T19:33:48.421Z,2.58
2022-09-28T19:36:24.214Z,5.30
2022-09-28T19:38:52.648Z,5.60
2022-09-28T19:41:43.498Z,6.88
2022-09-28T19:44:25.338Z,5.80
2022-09-28T19:46:58.600Z,5.63
2022-09-28T19:49:27.433Z,4.97
2022-09-28T19:52:14.943Z,4.78
2022-09-28T19:54:56.810Z,4.00
2022-09-28T19:57:29.784Z,2.78
2022-09-28T20:00:01.692Z,3.20
2022-09-28T20:02:33.342Z,2.75
2022-09-28T20:05:00.144Z,3.83
2022-09-28T20:07:26.931Z,3.40
2022-09-28T20:09:53.658Z,2.60
2022-09-28T20:12:20.699Z,2.63
2022-09-28T20:14:47.431Z,2.92
2022-09-28T20:17:14.284Z,2.70
2022-09-28T20:19:42.207Z,2.63
2022-09-28T20:22:10.798Z,4.25
2022-09-28T20:24:37.759Z,2.92
2022-09-28T20:27:04.445Z,3.50
2022-09-28T20:29:32.034Z,2.88
2022-09-28T20:31:59.038Z,5.10
2022-09-28T20:34:25.817Z,4.38
2022-09-28T20:36:52.622Z,3.88
2022-09-28T20:39:19.398Z,4.03
2022-09-28T20:41:48.227Z,4.43
2022-09-28T20:44:15.024Z,3.03
2022-09-28T20:46:46.640Z,2.88
2022-09-28T20:51:42.723Z,3.53
2022-09-28T20:54:09.473Z,4.13
2022-09-28T20:56:38.567Z,4.55
2022-09-28T20:59:09.779Z,5.43
2022-09-28T21:01:36.537Z,4.10
2022-09-28T21:04:05.612Z,3.15
2022-09-28T21:06:37.529Z,3.70
2022-09-28T21:09:05.951Z,4.63
2022-09-28T21:11:34.161Z,3.03
2022-09-28T21:14:03.075Z,2.60
2022-09-28T21:16:32.496Z,2.80
2022-09-28T21:18:59.181Z,2.75
2022-09-28T21:21:26.557Z,3.13
2022-09-28T21:23:57.685Z,2.50
2022-09-28T21:26:27.393Z,2.80
2022-09-28T21:28:55.881Z,3.13
2022-09-28T21:31:28.709Z,3.40
2022-09-28T21:33:58.859Z,3.03
2022-09-28T21:36:25.793Z,3.15
2022-09-28T21:38:54.455Z,4.85
2022-09-28T21:41:21.164Z,4.85
2022-09-28T21:43:47.879Z,6.10
2022-09-28T21:46:14.616Z,5.82
2022-09-28T21:48:41.504Z,6.03
2022-09-28T21:51:10.472Z,5.85
2022-09-28T21:53:38.029Z,5.20
2022-09-28T21:56:07.537Z,5.70
2022-09-28T21:58:35.844Z,5.50
2022-09-28T22:01:08.415Z,4.93
2022-09-28T22:03:36.630Z,5.85
2022-09-28T22:06:04.233Z,4.38
2022-09-28T22:08:31.059Z,3.95
2022-09-28T22:11:01.782Z,4.20
2022-09-28T22:13:37.258Z,5.40
2022-09-28T22:16:04.319Z,4.32
2022-09-28T22:18:32.378Z,4.57
2022-09-28T22:21:07.115Z,4.78
2022-09-28T22:23:34.411Z,4.55
2022-09-28T22:26:11.264Z,4.47
2022-09-28T22:28:39.837Z,6.18
2022-09-28T22:31:06.726Z,6.60
2022-09-28T22:33:34.074Z,5.90
2022-09-28T22:36:00.853Z,6.47
2022-09-28T22:38:31.129Z,5.32
2022-09-28T22:40:58.318Z,5.60
2022-09-28T22:43:26.248Z,5.85
2022-09-28T22:46:12.977Z,5.40
2022-09-28T22:48:42.258Z,5.25
2022-09-28T22:51:10.753Z,3.90
2022-09-28T22:53:38.281Z,5.03
2022-09-28T22:56:06.465Z,4.85
2022-09-28T22:58:34.414Z,5.20
2022-09-28T23:01:22.214Z,4.10
2022-09-28T23:03:50.406Z,4.10
2022-09-28T23:06:19.285Z,4.80
2022-09-28T23:08:47.207Z,4.60
2022-09-28T23:11:15.176Z,4.13
2022-09-28T23:13:41.992Z,5.18
2022-09-28T23:16:11.848Z,4.82
2022-09-28T23:18:42.441Z,4.07
2022-09-28T23:21:17.562Z,4.28
2022-09-28T23:23:45.479Z,4.00
2022-09-28T23:26:20.215Z,5.82
2022-09-28T23:28:47.031Z,5.18
2022-09-28T23:31:23.050Z,4.93
2022-09-28T23:33:50.487Z,4.82
2022-09-28T23:36:17.892Z,3.95
2022-09-28T23:38:44.693Z,4.47
2022-09-28T23:41:11.458Z,4.68
2022-09-28T23:43:38.279Z,4.82
2022-09-28T23:46:05.793Z,5.15
2022-09-28T23:48:33.333Z,3.58
2022-09-28T23:51:00.299Z,4.38
2022-09-28T23:53:28.809Z,3.83
2022-09-28T23:55:55.717Z,3.80
2022-09-28T23:58:22.600Z,4.07
